Hovedside
METAR-TAF:

METAR-TAF

Lufthavner :

Trollhättan-Vänersborg, Sverige

breddegrad: 58-19N, lengdegrad: 012-21E, høyde over havet: 41 m

Gjeldene værobservasjon

Denne rapporten ble laget for 12 minutter siden, klokken 20:20 UTC
Vind 4 kt fra Sør-sørøst
Temperatur -1°C
Luftfuktighet 100%
Trykk 1016 hPa
Sikt: 0150 m
Spredte skyer i en høyde av 200 ft
underkjølt tåke

METAR: ESGT 142020Z 15004KT 0150 R15/0500N R33/0600 FZFG SCT002 M01/M01 Q1016

Tid: 21:32 (20:32 UTC)

Varsel

Denne rapporten ble laget for 3 timer og 2 minutter siden, klokken 17:30 UTC
Varsel gyldig fra 14. klokken 18 UTC til 14. klokken 22 UTC
Vind 2 kt fra skiftende retning
Sikt: 5000 m
Spredte skyer i en høyde av 900 ft
Brutte skyer i en høyde av 1500 ft
Sannsynlighet 40%
fra 14. klokken 18 UTC til 14. klokken 22 UTC
Sikt: 0300 m
i en høyde av 200 ft
tåke

TAF: ESGT 141730Z 1418/1422 VRB02KT 5000 SCT009 BKN015 PROB40 1418/1422 0300 FG VV002

Værobservasjoner og værvarsel for over 4000 flyplasser (METAR- og TAF-rapporter).

Tilgjengelige stasjoner er representert av de røde og gule prikkene på kartet.

Hold musepekeren over prikken for å se navnet på stasjonen.

Klikk så for å se værobservasjoner og -varsler.

For å forandre kartet kan du klikke på den grønne knappen med svart kryss for å zoome inn, på den grønne knappen med strek for å zoome ut, eller på de grønne pilene for å se tilstøtende kart.


METAR-TAF: